EBCI/CRL METAR and TAF weather

Enter ICAO airport designator
Station Type Date Time Source
EBCI METAR 2021/09/16 21:50 UTC NOAA

EBCI 162150Z 20003KT 9999 FEW045 15/13 Q1019 NOSIG


Station Type Date Time Source
EBCI Decoded METAR 2021/09/16 21:50 UTC NOAA

Charleroi / Gosselies, Belgium (EBCI) 50-28N 004-27E 192M
Sep 16, 2021 - 05:50 PM EDT / 2021.09.16 2150 UTC
Wind: from the SSW (200 degrees) at 3 MPH (3 KT):0
Visibility: greater than 7 mile(s):0
Sky conditions: mostly clear
Temperature: 59 F (15 C)
Dew Point: 55 F (13 C)
Relative Humidity: 87%
Pressure (altimeter): 30.09 in. Hg (1019 hPa)
ob: EBCI 162150Z 20003KT 9999 FEW045 15/13 Q1019 NOSIG
cycle: 22

Station Type Date Time Source
EBCI TAF 2021/09/16 18:27 UTC NOAA

TAF EBCI 161710Z 1618/1724 31005KT 9999 FEW030
BECMG 1700/1702 3000 MIFG BR PROB40
TEMPO 1702/1707 0800 BCFG
BECMG 1707/1709 9999 NSW

Example: see airport list